createdAt,value
2019-04-03T00:00:00.069Z,8.00
2019-04-03T00:00:35.902Z,8.00
2019-04-03T00:01:11.133Z,8.00
2019-04-03T00:01:45.011Z,8.00
2019-04-03T00:02:17.691Z,8.00
2019-04-03T00:02:50.235Z,8.00
2019-04-03T00:03:22.770Z,8.00
2019-04-03T00:03:55.329Z,8.00
2019-04-03T00:04:28.150Z,8.00
2019-04-03T00:05:00.722Z,8.00
2019-04-03T00:05:33.699Z,8.00
2019-04-03T00:06:07.955Z,8.00
2019-04-03T00:06:40.823Z,8.00
2019-04-03T00:07:13.467Z,8.00
2019-04-03T00:07:46.342Z,8.00
2019-04-03T00:08:18.891Z,8.10
2019-04-03T00:08:51.453Z,8.00
2019-04-03T00:09:24.416Z,8.00
2019-04-03T00:09:57.338Z,8.00
2019-04-03T00:10:30.147Z,8.00
2019-04-03T00:11:03.443Z,8.10
2019-04-03T00:11:36.135Z,8.00
2019-04-03T00:12:10.360Z,8.00
2019-04-03T00:12:43.031Z,8.00
2019-04-03T00:13:15.698Z,8.00
2019-04-03T00:13:48.302Z,8.00
2019-04-03T00:14:21.009Z,8.00
2019-04-03T00:14:53.546Z,8.00
2019-04-03T00:15:26.426Z,8.00
2019-04-03T00:15:59.125Z,8.00
2019-04-03T00:16:31.679Z,8.00
2019-04-03T00:17:04.235Z,8.00
2019-04-03T00:17:36.787Z,8.00
2019-04-03T00:18:09.330Z,8.00
2019-04-03T00:18:41.884Z,8.00
2019-04-03T00:19:17.323Z,8.00
2019-04-03T00:19:49.224Z,8.00
2019-04-03T00:20:21.774Z,8.00
2019-04-03T00:20:54.310Z,8.00
2019-04-03T00:21:26.899Z,7.90
2019-04-03T00:21:59.447Z,7.90
2019-04-03T00:22:31.993Z,8.00
2019-04-03T00:23:05.547Z,7.90
2019-04-03T00:23:38.091Z,7.90
2019-04-03T00:24:10.638Z,8.00
2019-04-03T00:24:45.291Z,8.00
2019-04-03T00:25:17.882Z,8.00
2019-04-03T00:25:52.105Z,8.00
2019-04-03T00:26:25.137Z,8.00
2019-04-03T00:26:57.716Z,8.00
2019-04-03T00:27:30.263Z,8.00
2019-04-03T00:28:02.806Z,8.00
2019-04-03T00:28:35.733Z,8.00
2019-04-03T00:29:08.276Z,8.00
2019-04-03T00:29:40.816Z,8.00
2019-04-03T00:30:14.039Z,8.00
2019-04-03T00:30:46.696Z,8.00
2019-04-03T00:31:19.792Z,8.00
2019-04-03T00:31:53.681Z,8.00
2019-04-03T00:32:26.586Z,7.90
2019-04-03T00:32:59.474Z,7.90
2019-04-03T00:33:32.303Z,7.90
2019-04-03T00:34:04.939Z,7.90
2019-04-03T00:34:37.494Z,7.90
2019-04-03T00:35:10.534Z,7.90
2019-04-03T00:35:43.095Z,7.90
2019-04-03T00:36:15.778Z,7.90
2019-04-03T00:36:48.313Z,7.90
2019-04-03T00:37:22.821Z,7.90
2019-04-03T00:37:55.262Z,7.90
2019-04-03T00:38:28.169Z,7.90
2019-04-03T00:39:00.718Z,7.90
2019-04-03T00:39:33.256Z,7.90
2019-04-03T00:40:06.683Z,7.90
2019-04-03T00:40:39.567Z,7.90
2019-04-03T00:41:12.222Z,7.90
2019-04-03T00:41:44.773Z,7.80
2019-04-03T00:42:17.323Z,7.80
2019-04-03T00:42:49.866Z,7.80
2019-04-03T00:43:24.398Z,7.80
2019-04-03T00:43:56.834Z,7.80
2019-04-03T00:44:29.913Z,7.80
2019-04-03T00:45:03.820Z,7.80
2019-04-03T00:45:36.724Z,7.90
2019-04-03T00:46:09.475Z,7.90
2019-04-03T00:46:42.023Z,7.80
2019-04-03T00:47:14.659Z,7.80
2019-04-03T00:47:47.226Z,7.80
2019-04-03T00:48:19.787Z,7.80
2019-04-03T00:48:52.371Z,7.80
2019-04-03T00:49:26.092Z,7.80
2019-04-03T00:49:59.070Z,7.80
2019-04-03T00:50:31.606Z,7.80
2019-04-03T00:51:04.420Z,7.80
2019-04-03T00:51:37.277Z,7.80
2019-04-03T00:52:09.818Z,7.80
2019-04-03T00:52:45.139Z,7.80
2019-04-03T00:53:19.272Z,7.80
2019-04-03T00:53:53.917Z,7.80
2019-04-03T00:54:27.359Z,7.80
2019-04-03T00:55:00.075Z,7.80
2019-04-03T00:55:32.645Z,7.80
2019-04-03T00:56:05.328Z,7.80
2019-04-03T00:56:37.928Z,7.70
2019-04-03T00:57:10.531Z,7.70
2019-04-03T00:57:43.768Z,7.70
2019-04-03T00:58:36.760Z,7.70
2019-04-03T00:59:10.039Z,7.70
2019-04-03T00:59:42.980Z,7.70
2019-04-03T01:00:15.756Z,7.70
2019-04-03T01:00:48.298Z,7.70
2019-04-03T01:01:20.846Z,7.70
2019-04-03T01:01:54.761Z,7.70
2019-04-03T01:02:28.191Z,7.70
2019-04-03T01:03:01.299Z,7.70
2019-04-03T01:03:33.847Z,7.70
2019-04-03T01:04:06.596Z,7.70
2019-04-03T01:04:39.141Z,7.70
2019-04-03T01:05:12.222Z,7.70
2019-04-03T01:05:44.777Z,7.70
2019-04-03T01:06:17.654Z,7.60
2019-04-03T01:06:50.234Z,7.60
2019-04-03T01:07:23.463Z,7.60
2019-04-03T01:07:56.007Z,7.60
2019-04-03T01:08:29.343Z,7.60
2019-04-03T01:09:02.328Z,7.60
2019-04-03T01:09:35.243Z,7.60
2019-04-03T01:10:07.786Z,7.60
2019-04-03T01:10:40.373Z,7.60
2019-04-03T01:11:13.087Z,7.60
2019-04-03T01:11:45.639Z,7.60
2019-04-03T01:12:18.210Z,7.60
2019-04-03T01:12:50.750Z,7.60
2019-04-03T01:13:23.311Z,7.50
2019-04-03T01:13:56.182Z,7.50
2019-04-03T01:14:31.304Z,7.50
2019-04-03T01:15:03.389Z,7.50
2019-04-03T01:15:35.930Z,7.50
2019-04-03T01:16:08.593Z,7.50
2019-04-03T01:16:41.298Z,7.40
2019-04-03T01:17:14.259Z,7.50
2019-04-03T01:17:46.814Z,7.40
2019-04-03T01:18:19.874Z,7.40
2019-04-03T01:18:52.858Z,7.50
2019-04-03T01:19:26.039Z,7.40
2019-04-03T01:19:58.587Z,7.40
2019-04-03T01:20:31.592Z,7.40
2019-04-03T01:21:06.177Z,7.40
2019-04-03T01:21:39.143Z,7.40
2019-04-03T01:22:12.016Z,7.50
2019-04-03T01:22:44.567Z,7.40
2019-04-03T01:23:17.212Z,7.50
2019-04-03T01:23:49.749Z,7.50
2019-04-03T01:24:22.711Z,7.50
2019-04-03T01:24:55.260Z,7.50
2019-04-03T01:25:27.806Z,7.50
2019-04-03T01:26:00.386Z,7.50
2019-04-03T01:26:32.911Z,7.50
2019-04-03T01:27:05.897Z,7.50
2019-04-03T01:27:41.221Z,7.50
2019-04-03T01:28:12.795Z,7.50
2019-04-03T01:28:45.365Z,7.50
2019-04-03T01:29:17.941Z,7.50
2019-04-03T01:29:50.882Z,7.40
2019-04-03T01:30:23.624Z,7.40
2019-04-03T01:30:56.204Z,7.40
2019-04-03T01:31:28.760Z,7.40
2019-04-03T01:32:01.527Z,7.40
2019-04-03T01:32:34.149Z,7.40
2019-04-03T01:33:06.792Z,7.40
2019-04-03T01:33:39.391Z,7.30
2019-04-03T01:34:11.968Z,7.30
2019-04-03T01:34:47.035Z,7.30
2019-04-03T01:35:19.200Z,7.30
2019-04-03T01:35:52.159Z,7.30
2019-04-03T01:36:24.917Z,7.30
2019-04-03T01:36:58.024Z,7.30
2019-04-03T01:37:31.040Z,7.20
2019-04-03T01:38:03.672Z,7.30
2019-04-03T01:38:38.422Z,7.30
2019-04-03T01:39:11.013Z,7.20
2019-04-03T01:39:44.537Z,7.20
2019-04-03T01:40:19.977Z,7.20
2019-04-03T01:40:51.734Z,7.20
2019-04-03T01:41:24.307Z,7.20
2019-04-03T01:41:57.292Z,7.20
2019-04-03T01:42:30.641Z,7.20
2019-04-03T01:43:03.557Z,7.20
2019-04-03T01:43:37.436Z,7.20
2019-04-03T01:44:10.268Z,7.20
2019-04-03T01:44:43.613Z,7.20
2019-04-03T01:45:16.731Z,7.20
2019-04-03T01:45:49.314Z,7.20
2019-04-03T01:46:21.883Z,7.20
2019-04-03T01:46:57.230Z,7.20
2019-04-03T01:47:28.851Z,7.20
2019-04-03T01:48:01.619Z,7.20
2019-04-03T01:48:34.199Z,7.20
2019-04-03T01:49:07.147Z,7.10
2019-04-03T01:49:40.222Z,7.20
2019-04-03T01:50:13.538Z,7.10
2019-04-03T01:50:46.480Z,7.10
2019-04-03T01:51:20.014Z,7.10
2019-04-03T01:51:52.599Z,7.10
2019-04-03T01:52:25.935Z,7.10
2019-04-03T01:52:58.518Z,7.10
2019-04-03T01:53:32.766Z,7.20
2019-04-03T01:54:06.856Z,7.10
2019-04-03T01:54:39.898Z,7.10
2019-04-03T01:55:12.849Z,7.10
2019-04-03T01:55:46.293Z,7.10
2019-04-03T01:56:19.375Z,7.10
2019-04-03T01:56:51.881Z,7.10
2019-04-03T01:57:25.228Z,7.20
2019-04-03T01:57:59.255Z,7.10
2019-04-03T01:58:31.985Z,7.20
2019-04-03T01:59:06.851Z,7.10
2019-04-03T01:59:39.821Z,7.10
2019-04-03T02:00:12.529Z,7.10
2019-04-03T02:00:46.372Z,7.10
2019-04-03T02:01:18.961Z,7.10
2019-04-03T02:01:52.849Z,7.10
2019-04-03T02:02:25.514Z,7.10
2019-04-03T02:03:01.898Z,7.10
2019-04-03T02:03:33.992Z,7.10
2019-04-03T02:04:07.086Z,7.10
2019-04-03T02:04:42.028Z,7.10
2019-04-03T02:05:15.072Z,7.10
2019-04-03T02:05:47.677Z,7.10
2019-04-03T02:06:20.257Z,7.10
2019-04-03T02:06:52.842Z,7.10
2019-04-03T02:07:26.554Z,7.10
2019-04-03T02:07:59.787Z,7.10
2019-04-03T02:08:33.207Z,7.10
2019-04-03T02:09:09.564Z,7.10
2019-04-03T02:09:42.394Z,7.00
2019-04-03T02:10:18.289Z,7.00
2019-04-03T02:10:51.100Z,7.00
2019-04-03T02:11:24.332Z,7.00
2019-04-03T02:11:57.722Z,7.00
2019-04-03T02:12:30.308Z,7.00
2019-04-03T02:13:03.757Z,7.00
2019-04-03T02:13:36.331Z,7.00
2019-04-03T02:14:09.079Z,6.90
2019-04-03T02:14:42.222Z,6.90
2019-04-03T02:15:15.570Z,7.00
2019-04-03T02:15:48.287Z,7.00
2019-04-03T02:16:23.053Z,7.00
2019-04-03T02:16:56.158Z,7.00
2019-04-03T02:17:28.868Z,7.00
2019-04-03T02:18:02.172Z,6.90
2019-04-03T02:18:34.764Z,6.90
2019-04-03T02:19:08.165Z,6.90
2019-04-03T02:19:40.753Z,6.80
2019-04-03T02:20:13.863Z,6.80
2019-04-03T02:20:46.528Z,6.80
2019-04-03T02:21:19.265Z,6.80
2019-04-03T02:21:52.029Z,6.80
2019-04-03T02:22:25.973Z,6.80
2019-04-03T02:23:00.412Z,6.80
2019-04-03T02:23:33.233Z,6.80
2019-04-03T02:24:05.822Z,6.80
2019-04-03T02:24:38.718Z,6.80
2019-04-03T02:25:11.429Z,6.70
2019-04-03T02:25:44.705Z,6.80
2019-04-03T02:26:19.192Z,6.70
2019-04-03T02:26:52.088Z,6.70
2019-04-03T02:27:25.719Z,6.70
2019-04-03T02:27:58.796Z,6.70
2019-04-03T02:28:34.187Z,6.60
2019-04-03T02:29:08.682Z,6.60
2019-04-03T02:29:42.609Z,6.60
2019-04-03T02:30:16.095Z,6.60
2019-04-03T02:30:48.948Z,6.60
2019-04-03T02:31:21.733Z,6.60
2019-04-03T02:31:54.277Z,6.60
2019-04-03T02:32:28.211Z,6.50
2019-04-03T02:33:01.081Z,6.50
2019-04-03T02:33:34.634Z,6.50
2019-04-03T02:34:08.074Z,6.50
2019-04-03T02:34:41.486Z,6.50
2019-04-03T02:35:14.371Z,6.50
2019-04-03T02:35:47.808Z,6.50
2019-04-03T02:36:20.522Z,6.50
2019-04-03T02:36:53.329Z,6.50
2019-04-03T02:37:25.884Z,6.50
2019-04-03T02:38:00.285Z,6.40
2019-04-03T02:38:33.120Z,6.50
2019-04-03T02:39:06.314Z,6.50
2019-04-03T02:39:39.017Z,6.50
2019-04-03T02:40:12.088Z,6.40
2019-04-03T02:40:45.006Z,6.40
2019-04-03T02:41:18.234Z,6.40
2019-04-03T02:41:51.359Z,6.40
2019-04-03T02:42:25.012Z,6.40
2019-04-03T02:42:57.972Z,6.40
2019-04-03T02:43:31.228Z,6.30
2019-04-03T02:44:04.297Z,6.40
2019-04-03T02:44:38.001Z,6.40
2019-04-03T02:45:10.880Z,6.30
2019-04-03T02:45:43.441Z,6.40
2019-04-03T02:46:16.210Z,6.40
2019-04-03T02:46:49.467Z,6.30
2019-04-03T02:47:22.889Z,6.30
2019-04-03T02:47:55.722Z,6.30
2019-04-03T02:48:28.709Z,6.30
2019-04-03T02:49:01.704Z,6.30
2019-04-03T02:49:35.788Z,6.30
2019-04-03T02:50:08.423Z,6.30
2019-04-03T02:50:41.073Z,6.30
2019-04-03T02:51:13.817Z,6.20
2019-04-03T02:51:47.175Z,6.30
2019-04-03T02:52:20.187Z,6.30
2019-04-03T02:52:57.976Z,6.30
2019-04-03T02:53:31.177Z,6.30
2019-04-03T02:54:09.824Z,6.30
2019-04-03T02:54:43.814Z,6.30
2019-04-03T02:55:16.918Z,6.30
2019-04-03T02:55:50.183Z,6.30
2019-04-03T02:56:23.177Z,6.30
2019-04-03T02:56:56.425Z,6.30
2019-04-03T02:57:29.360Z,6.30
2019-04-03T02:58:02.771Z,6.30
2019-04-03T02:58:36.039Z,6.30
2019-04-03T02:59:08.798Z,6.30
2019-04-03T02:59:42.017Z,6.20
2019-04-03T03:00:16.253Z,6.20
2019-04-03T03:00:50.300Z,6.20
2019-04-03T03:01:25.005Z,6.20
2019-04-03T03:01:58.435Z,6.20
2019-04-03T03:02:31.686Z,6.20
2019-04-03T03:03:04.271Z,6.20
2019-04-03T03:03:37.921Z,6.20
2019-04-03T03:04:10.881Z,6.20
2019-04-03T03:04:43.833Z,6.20
2019-04-03T03:05:16.655Z,6.20
2019-04-03T03:05:49.307Z,6.20
2019-04-03T03:06:23.310Z,6.10
2019-04-03T03:06:56.532Z,6.20
2019-04-03T03:07:30.097Z,6.10
2019-04-03T03:08:03.599Z,6.10
2019-04-03T03:08:40.350Z,6.10
2019-04-03T03:09:13.540Z,6.10
2019-04-03T03:09:47.733Z,6.10
2019-04-03T03:10:21.508Z,6.10
2019-04-03T03:10:55.667Z,6.10
2019-04-03T03:11:29.230Z,6.10
2019-04-03T03:12:04.513Z,6.10
2019-04-03T03:12:37.699Z,6.10
2019-04-03T03:13:10.428Z,6.10
2019-04-03T03:13:43.821Z,6.10
2019-04-03T03:14:17.529Z,6.10
2019-04-03T03:14:51.795Z,6.10
2019-04-03T03:15:26.875Z,6.10
2019-04-03T03:15:59.912Z,6.00
2019-04-03T03:16:32.645Z,6.00
2019-04-03T03:17:05.978Z,6.10
2019-04-03T03:17:39.587Z,6.10
2019-04-03T03:18:13.088Z,6.00
2019-04-03T03:18:45.716Z,6.00
2019-04-03T03:19:20.993Z,6.00
2019-04-03T03:19:54.449Z,6.00
2019-04-03T03:20:29.820Z,6.00
2019-04-03T03:21:03.293Z,6.10
2019-04-03T03:21:37.089Z,6.10
2019-04-03T03:22:10.361Z,6.00
2019-04-03T03:22:44.124Z,6.00
2019-04-03T03:23:17.934Z,6.00
2019-04-03T03:23:50.617Z,6.00
2019-04-03T03:24:23.952Z,6.00
2019-04-03T03:24:59.721Z,6.00
2019-04-03T03:25:33.738Z,6.00
2019-04-03T03:26:07.448Z,6.00
2019-04-03T03:26:40.760Z,6.00
2019-04-03T03:27:14.102Z,6.00
2019-04-03T03:27:46.959Z,6.00
2019-04-03T03:28:19.645Z,6.00
2019-04-03T03:28:57.213Z,6.00
2019-04-03T03:29:31.427Z,6.00
2019-04-03T03:30:28.447Z,6.00
2019-04-03T03:30:47.134Z,6.00
2019-04-03T03:31:14.236Z,5.90
2019-04-03T03:32:04.383Z,5.90
2019-04-03T03:32:30.644Z,5.90
2019-04-03T03:33:22.382Z,5.90
2019-04-03T03:33:38.800Z,5.90
2019-04-03T03:34:11.131Z,5.90
2019-04-03T03:34:56.015Z,5.90
2019-04-03T03:35:28.003Z,6.00
2019-04-03T03:35:56.255Z,6.00
2019-04-03T03:36:30.465Z,6.00
2019-04-03T03:37:03.945Z,5.90
2019-04-03T03:37:37.244Z,5.90
2019-04-03T03:38:10.783Z,5.90
2019-04-03T03:38:44.663Z,5.90
2019-04-03T03:39:18.345Z,5.90
2019-04-03T03:39:52.127Z,5.90
2019-04-03T03:40:27.149Z,5.90
2019-04-03T03:41:00.920Z,5.90
2019-04-03T03:41:34.942Z,5.90
2019-04-03T03:42:08.649Z,5.90
2019-04-03T03:42:42.264Z,5.90
2019-04-03T03:43:15.806Z,5.90
2019-04-03T03:43:48.595Z,5.80
2019-04-03T03:44:21.889Z,5.90
2019-04-03T03:45:01.215Z,5.80
2019-04-03T03:45:33.957Z,5.80
2019-04-03T03:46:06.846Z,5.80
2019-04-03T03:46:40.248Z,5.80
2019-04-03T03:47:13.718Z,5.80
2019-04-03T03:47:50.008Z,5.90
2019-04-03T03:48:23.100Z,5.80
2019-04-03T03:48:56.475Z,5.90
2019-04-03T03:49:29.336Z,5.80
2019-04-03T03:50:03.132Z,5.80
2019-04-03T03:50:36.297Z,5.80
2019-04-03T03:51:09.520Z,5.80
2019-04-03T03:51:43.058Z,5.80
2019-04-03T03:52:15.933Z,5.80
2019-04-03T03:52:49.580Z,5.80
2019-04-03T03:53:22.330Z,5.80
2019-04-03T03:53:56.354Z,5.80
2019-04-03T03:54:29.115Z,5.80
2019-04-03T03:55:02.790Z,5.70
2019-04-03T03:55:36.781Z,5.80
2019-04-03T03:56:09.860Z,5.80
2019-04-03T03:56:43.950Z,5.80
2019-04-03T03:57:16.943Z,5.80
2019-04-03T03:57:50.684Z,5.70
2019-04-03T03:58:23.363Z,5.80
2019-04-03T03:58:57.935Z,5.80
2019-04-03T03:59:30.922Z,5.70
2019-04-03T04:00:05.357Z,5.80
2019-04-03T04:00:38.905Z,5.80
2019-04-03T04:01:12.020Z,5.80
2019-04-03T04:01:44.909Z,5.80
2019-04-03T04:02:17.734Z,5.80
2019-04-03T04:02:50.869Z,5.80
2019-04-03T04:03:23.716Z,5.80
2019-04-03T04:03:57.045Z,5.80
2019-04-03T04:04:30.579Z,5.80
2019-04-03T04:05:03.434Z,5.90
2019-04-03T04:05:36.657Z,5.90
2019-04-03T04:06:11.304Z,5.80
2019-04-03T04:06:43.893Z,5.90
2019-04-03T04:07:18.100Z,5.80
2019-04-03T04:07:51.357Z,5.80
2019-04-03T04:08:24.576Z,5.80
2019-04-03T04:08:58.115Z,5.80
2019-04-03T04:09:30.941Z,5.80
2019-04-03T04:10:05.416Z,5.80
2019-04-03T04:10:38.030Z,5.80
2019-04-03T04:11:11.677Z,5.90
2019-04-03T04:11:45.567Z,5.90
2019-04-03T04:12:19.316Z,5.90
2019-04-03T04:12:52.697Z,5.90
2019-04-03T04:13:26.598Z,5.90
2019-04-03T04:13:59.969Z,5.90
2019-04-03T04:14:32.954Z,5.90
2019-04-03T04:15:05.926Z,5.90
2019-04-03T04:15:39.201Z,5.90
2019-04-03T04:16:12.303Z,5.90
2019-04-03T04:16:45.861Z,5.90
2019-04-03T04:17:19.623Z,5.90
2019-04-03T04:17:53.562Z,5.90
2019-04-03T04:18:26.203Z,5.90
2019-04-03T04:18:58.788Z,5.90
2019-04-03T04:19:31.805Z,5.90
2019-04-03T04:20:06.744Z,5.90
2019-04-03T04:20:40.341Z,5.90
2019-04-03T04:21:14.361Z,5.90
2019-04-03T04:21:47.593Z,6.00
2019-04-03T04:22:26.287Z,5.90
2019-04-03T04:22:58.451Z,6.00
2019-04-03T04:23:32.384Z,6.00
2019-04-03T04:24:05.900Z,6.00
2019-04-03T04:24:39.047Z,6.00
2019-04-03T04:25:12.003Z,6.00
2019-04-03T04:25:44.983Z,6.00
2019-04-03T04:26:17.751Z,6.00
2019-04-03T04:26:50.633Z,6.00
2019-04-03T04:27:23.926Z,6.00
2019-04-03T04:27:57.394Z,6.00
2019-04-03T04:28:30.405Z,6.00
2019-04-03T04:29:04.182Z,6.00
2019-04-03T04:29:37.729Z,6.00
2019-04-03T04:30:12.088Z,6.00
2019-04-03T04:30:48.174Z,6.00
2019-04-03T04:31:21.189Z,5.90
2019-04-03T04:31:53.802Z,6.00
2019-04-03T04:32:26.755Z,6.00
2019-04-03T04:33:00.001Z,6.00
2019-04-03T04:33:32.587Z,6.00
2019-04-03T04:34:06.186Z,5.90
2019-04-03T04:34:39.377Z,5.90
2019-04-03T04:35:12.111Z,5.90
2019-04-03T04:35:45.676Z,5.90
2019-04-03T04:36:18.253Z,5.90
2019-04-03T04:36:53.085Z,5.90
2019-04-03T04:37:26.863Z,5.90
2019-04-03T04:37:59.633Z,5.90
2019-04-03T04:38:32.186Z,5.90
2019-04-03T04:39:06.564Z,5.90
2019-04-03T04:39:39.876Z,5.90
2019-04-03T04:40:13.183Z,6.00
2019-04-03T04:40:46.191Z,6.00
2019-04-03T04:41:20.545Z,5.90
2019-04-03T04:41:53.647Z,5.90
2019-04-03T04:42:26.772Z,6.00
2019-04-03T04:43:03.379Z,5.90
2019-04-03T04:43:35.459Z,5.90
2019-04-03T04:44:09.892Z,6.00
2019-04-03T04:44:43.389Z,6.00
2019-04-03T04:45:16.009Z,6.00
2019-04-03T04:45:48.759Z,6.00
2019-04-03T04:46:21.706Z,6.00
2019-04-03T04:46:54.428Z,5.90
2019-04-03T04:47:27.935Z,6.00
2019-04-03T04:48:01.305Z,6.00
2019-04-03T04:48:34.539Z,5.90
2019-04-03T04:49:07.969Z,6.00
2019-04-03T04:49:41.231Z,6.00
2019-04-03T04:50:20.439Z,6.00
2019-04-03T04:50:55.116Z,6.00
2019-04-03T04:51:27.984Z,6.00
2019-04-03T04:52:00.728Z,6.00
2019-04-03T04:52:33.278Z,6.00
2019-04-03T04:53:06.869Z,6.00
2019-04-03T04:53:39.446Z,6.00
2019-04-03T04:54:13.217Z,6.00
2019-04-03T04:54:45.865Z,6.00
2019-04-03T04:55:19.104Z,6.00
2019-04-03T04:55:52.343Z,6.00
2019-04-03T04:56:26.046Z,6.00
2019-04-03T04:56:58.779Z,6.00
2019-04-03T04:57:31.363Z,6.00
2019-04-03T04:58:04.941Z,6.00
2019-04-03T04:58:38.264Z,6.00
2019-04-03T04:59:13.415Z,6.00
2019-04-03T04:59:46.580Z,6.00
2019-04-03T05:00:19.177Z,5.90
2019-04-03T05:00:53.278Z,6.00
2019-04-03T05:01:26.832Z,6.00
2019-04-03T05:01:59.434Z,6.00
2019-04-03T05:02:32.000Z,6.00
2019-04-03T05:03:06.869Z,5.90
2019-04-03T05:03:40.190Z,5.90
2019-04-03T05:04:15.136Z,5.90
2019-04-03T05:04:47.701Z,5.90
2019-04-03T05:05:20.445Z,5.90
2019-04-03T05:05:53.024Z,5.90
2019-04-03T05:06:28.595Z,6.00
2019-04-03T05:07:01.087Z,6.00
2019-04-03T05:07:33.709Z,6.00
2019-04-03T05:08:07.282Z,6.00
2019-04-03T05:08:39.889Z,6.00
2019-04-03T05:09:12.597Z,6.00
2019-04-03T05:09:45.622Z,6.00
2019-04-03T05:10:18.553Z,6.00
2019-04-03T05:10:51.542Z,6.00
2019-04-03T05:11:24.116Z,6.00
2019-04-03T05:11:59.059Z,6.00
2019-04-03T05:12:32.468Z,6.00
2019-04-03T05:13:06.941Z,6.00
2019-04-03T05:13:39.507Z,6.10
2019-04-03T05:14:13.015Z,6.10
2019-04-03T05:14:48.509Z,6.10
2019-04-03T05:15:23.441Z,6.10
2019-04-03T05:15:55.187Z,6.10
2019-04-03T05:16:27.849Z,6.10
2019-04-03T05:17:01.317Z,6.10
2019-04-03T05:17:34.315Z,6.10
2019-04-03T05:18:07.761Z,6.10
2019-04-03T05:18:40.354Z,6.10
2019-04-03T05:19:18.519Z,6.10
2019-04-03T05:19:48.924Z,6.10
2019-04-03T05:20:22.269Z,6.10
2019-04-03T05:20:55.339Z,6.20
2019-04-03T05:21:28.387Z,6.20
2019-04-03T05:22:01.888Z,6.20
2019-04-03T05:22:34.850Z,6.20
2019-04-03T05:23:08.246Z,6.30
2019-04-03T05:23:45.100Z,6.20
2019-04-03T05:24:17.974Z,6.20
2019-04-03T05:24:50.680Z,6.30
2019-04-03T05:25:24.103Z,6.30
2019-04-03T05:25:57.811Z,6.30
2019-04-03T05:26:32.700Z,6.30
2019-04-03T05:27:07.938Z,6.30
2019-04-03T05:27:42.701Z,6.30
2019-04-03T05:28:15.971Z,6.30
2019-04-03T05:28:54.565Z,6.30
2019-04-03T05:29:23.702Z,6.40
2019-04-03T05:29:57.647Z,6.40
2019-04-03T05:30:33.346Z,6.40
2019-04-03T05:31:07.825Z,6.40
2019-04-03T05:31:40.612Z,6.50
2019-04-03T05:32:13.146Z,6.50
2019-04-03T05:32:46.693Z,6.50
2019-04-03T05:33:19.687Z,6.60
2019-04-03T05:33:52.332Z,6.60
2019-04-03T05:34:25.299Z,6.60
2019-04-03T05:34:58.748Z,6.70
2019-04-03T05:35:31.320Z,6.70
2019-04-03T05:36:03.953Z,6.70
2019-04-03T05:36:36.911Z,6.70
2019-04-03T05:37:12.043Z,6.80
2019-04-03T05:37:45.396Z,6.90
2019-04-03T05:38:17.984Z,6.90
2019-04-03T05:38:53.438Z,7.00
2019-04-03T05:39:25.938Z,7.10
2019-04-03T05:39:58.756Z,7.10
2019-04-03T05:40:32.534Z,7.30
2019-04-03T05:41:05.633Z,7.30
2019-04-03T05:41:38.607Z,7.40
2019-04-03T05:42:11.943Z,7.50
2019-04-03T05:42:45.020Z,7.60
2019-04-03T05:43:17.585Z,7.80
2019-04-03T05:43:50.469Z,7.80
2019-04-03T05:44:24.100Z,8.00
2019-04-03T05:44:56.755Z,8.10
2019-04-03T05:45:29.313Z,8.30
2019-04-03T05:46:02.059Z,8.40
2019-04-03T05:46:37.639Z,8.50
2019-04-03T05:47:11.700Z,8.70
2019-04-03T05:47:44.550Z,8.80
2019-04-03T05:48:18.569Z,8.90
2019-04-03T05:48:51.624Z,9.00
2019-04-03T05:49:25.319Z,9.10
2019-04-03T05:49:58.275Z,9.30
2019-04-03T05:50:30.877Z,9.40
2019-04-03T05:51:04.224Z,9.50
2019-04-03T05:51:38.091Z,9.60
2019-04-03T05:52:11.007Z,9.60
2019-04-03T05:52:44.904Z,9.60
2019-04-03T05:53:18.166Z,9.60
2019-04-03T05:53:53.550Z,9.60
2019-04-03T05:54:25.798Z,9.60
2019-04-03T05:54:58.369Z,9.60
2019-04-03T05:55:31.844Z,9.60
2019-04-03T05:56:04.431Z,9.60
2019-04-03T05:56:37.333Z,9.70
2019-04-03T05:57:11.916Z,9.60
2019-04-03T05:57:46.732Z,9.60
2019-04-03T05:58:19.479Z,9.60
2019-04-03T05:58:56.683Z,9.60
2019-04-03T05:59:27.361Z,9.50
2019-04-03T06:00:02.110Z,9.50
2019-04-03T06:00:37.708Z,9.50
2019-04-03T06:01:11.404Z,9.50
2019-04-03T06:01:46.766Z,9.50
2019-04-03T06:02:20.996Z,9.50
2019-04-03T06:02:55.750Z,9.50
2019-04-03T06:03:39.167Z,9.50
2019-04-03T06:04:03.029Z,9.60
2019-04-03T06:04:36.065Z,9.60
2019-04-03T06:05:11.458Z,9.60
2019-04-03T06:05:44.055Z,9.60
2019-04-03T06:06:18.325Z,9.70
2019-04-03T06:06:51.708Z,9.60
2019-04-03T06:07:25.427Z,9.60
2019-04-03T06:07:58.005Z,9.60
2019-04-03T06:08:30.621Z,9.60
2019-04-03T06:09:06.067Z,9.70
2019-04-03T06:09:39.878Z,9.80
2019-04-03T06:10:12.760Z,9.80
2019-04-03T06:10:45.408Z,9.80
2019-04-03T06:11:20.649Z,9.90
2019-04-03T06:11:52.903Z,9.90
2019-04-03T06:12:25.574Z,9.90
2019-04-03T06:12:58.145Z,9.90
2019-04-03T06:13:30.706Z,10.00
2019-04-03T06:14:03.417Z,10.00
2019-04-03T06:14:37.238Z,10.10
2019-04-03T06:15:12.042Z,10.20
2019-04-03T06:15:45.460Z,10.30
2019-04-03T06:16:19.021Z,10.40
2019-04-03T06:16:51.676Z,10.40
2019-04-03T06:17:24.549Z,10.40
2019-04-03T06:17:57.092Z,10.50
2019-04-03T06:18:31.600Z,10.50
2019-04-03T06:19:06.406Z,10.50
2019-04-03T06:19:39.814Z,10.40
2019-04-03T06:20:13.006Z,10.30
2019-04-03T06:20:45.537Z,10.30
2019-04-03T06:21:18.897Z,10.20
2019-04-03T06:21:52.324Z,10.00
2019-04-03T06:22:25.200Z,9.90
2019-04-03T06:22:59.190Z,9.90
2019-04-03T06:23:31.785Z,9.90
2019-04-03T06:24:05.131Z,9.90
2019-04-03T06:24:38.146Z,9.90
2019-04-03T06:25:13.629Z,9.80
2019-04-03T06:25:45.877Z,9.70
2019-04-03T06:26:19.122Z,9.60
2019-04-03T06:26:51.698Z,9.60
2019-04-03T06:27:27.599Z,9.50
2019-04-03T06:27:59.736Z,9.40
2019-04-03T06:28:33.010Z,9.40
2019-04-03T06:29:07.279Z,9.30
2019-04-03T06:29:40.327Z,9.20
2019-04-03T06:30:13.186Z,9.20
2019-04-03T06:30:46.179Z,9.10
2019-04-03T06:31:19.092Z,8.90
2019-04-03T06:31:52.016Z,8.90
2019-04-03T06:32:25.119Z,8.80
2019-04-03T06:32:59.144Z,8.80
2019-04-03T06:33:34.923Z,8.80
2019-04-03T06:34:08.121Z,8.80
2019-04-03T06:34:43.336Z,8.80
2019-04-03T06:35:15.200Z,8.80
2019-04-03T06:35:48.810Z,8.80
2019-04-03T06:36:21.840Z,8.80
2019-04-03T06:36:55.112Z,8.80
2019-04-03T06:37:29.003Z,8.80
2019-04-03T06:38:01.551Z,8.80
2019-04-03T06:38:35.502Z,8.80
2019-04-03T06:39:09.215Z,8.80
2019-04-03T06:39:41.795Z,8.80
2019-04-03T06:40:15.353Z,8.80
2019-04-03T06:40:48.582Z,8.80
2019-04-03T06:41:21.946Z,8.80
2019-04-03T06:41:54.684Z,8.80
2019-04-03T06:42:27.596Z,8.80
2019-04-03T06:43:01.533Z,8.80
2019-04-03T06:43:34.724Z,8.80
2019-04-03T06:44:07.925Z,8.80
2019-04-03T06:44:42.656Z,8.90
2019-04-03T06:45:16.264Z,8.90
2019-04-03T06:45:49.471Z,9.00
2019-04-03T06:46:23.246Z,9.00
2019-04-03T06:46:56.456Z,9.10
2019-04-03T06:47:32.212Z,9.10
2019-04-03T06:48:05.629Z,9.20
2019-04-03T06:48:38.288Z,9.20
2019-04-03T06:49:11.182Z,9.20
2019-04-03T06:49:43.691Z,9.20
2019-04-03T06:50:17.855Z,9.10
2019-04-03T06:50:50.550Z,9.20
2019-04-03T06:51:23.990Z,9.10
2019-04-03T06:51:56.970Z,9.20
2019-04-03T06:52:29.742Z,9.20
2019-04-03T06:53:03.228Z,9.20
2019-04-03T06:53:36.104Z,9.20
2019-04-03T06:54:09.973Z,9.10
2019-04-03T06:54:44.214Z,9.10
2019-04-03T06:55:16.983Z,9.10
2019-04-03T06:55:49.843Z,9.20
2019-04-03T06:56:23.655Z,9.20
2019-04-03T06:56:56.621Z,9.30
2019-04-03T06:57:30.081Z,9.20
2019-04-03T06:58:03.109Z,9.20
2019-04-03T06:58:38.981Z,9.30
2019-04-03T06:59:10.643Z,9.20
2019-04-03T06:59:44.061Z,9.20
2019-04-03T07:00:16.729Z,9.20
2019-04-03T07:00:50.287Z,9.20
2019-04-03T07:01:22.931Z,9.20
2019-04-03T07:01:56.091Z,9.10
2019-04-03T07:02:31.412Z,9.10
2019-04-03T07:03:04.018Z,9.10
2019-04-03T07:03:37.465Z,9.20
2019-04-03T07:04:10.385Z,9.20
2019-04-03T07:04:43.424Z,9.20
2019-04-03T07:05:17.171Z,9.30
2019-04-03T07:05:49.765Z,9.30
2019-04-03T07:06:22.743Z,9.30
2019-04-03T07:06:56.680Z,9.40
2019-04-03T07:07:34.274Z,9.40
2019-04-03T07:08:05.902Z,9.40
2019-04-03T07:08:41.035Z,9.50
2019-04-03T07:09:22.706Z,9.50
2019-04-03T07:09:50.431Z,9.60
2019-04-03T07:10:25.702Z,9.60
2019-04-03T07:10:58.622Z,9.70
2019-04-03T07:11:31.626Z,9.70
2019-04-03T07:12:04.192Z,9.70
2019-04-03T07:12:36.896Z,9.70
2019-04-03T07:13:09.557Z,9.80
2019-04-03T07:13:43.030Z,9.70
2019-04-03T07:14:15.879Z,9.80
2019-04-03T07:14:48.854Z,9.80
2019-04-03T07:15:24.589Z,9.90
2019-04-03T07:15:57.810Z,9.90
2019-04-03T07:16:30.389Z,10.10
2019-04-03T07:17:05.413Z,10.20
2019-04-03T07:17:37.402Z,10.30
2019-04-03T07:18:10.001Z,10.30
2019-04-03T07:18:43.418Z,10.40
2019-04-03T07:19:16.125Z,10.40
2019-04-03T07:19:49.564Z,10.40
2019-04-03T07:20:22.120Z,10.50
2019-04-03T07:20:55.336Z,10.50
2019-04-03T07:21:30.267Z,10.60
2019-04-03T07:22:02.847Z,10.70
2019-04-03T07:22:35.444Z,10.70
2019-04-03T07:23:08.019Z,10.80
2019-04-03T07:23:41.210Z,10.80